Time;durP1;ratioP1;P1;durP2;ratioP2;P2;SDS_P1;SDS_P2;PMS_P1;PMS_P2;Temp;Humidity;BMP_temperature;BMP_pressure;BME280_temperature;BME280_humidity;BME280_pressure;Samples;Min_cycle;Max_cycle;Signal;HPM_P1;HPM_P2
2021/01/13 00:00:17;;;;;;;242.30;143.82;;;51.70;2201.60;;;;;;5075220;28;20035;-79
2021/01/13 00:02:43;;;;;;;260.38;151.32;;;51.70;2201.60;;;;;;5075169;28;20417;-79
2021/01/13 00:05:10;;;;;;;253.70;153.57;;;51.70;2201.60;;;;;;5076492;28;20025;-78
2021/01/13 00:07:35;;;;;;;276.65;161.57;;;51.70;2201.60;;;;;;5074244;28;20036;-80
2021/01/13 00:10:01;;;;;;;267.08;156.57;;;51.70;2201.60;;;;;;5075127;28;20025;-80
2021/01/13 00:12:27;;;;;;;267.75;156.38;;;51.60;2201.60;;;;;;5075268;28;20025;-78
2021/01/13 00:14:53;;;;;;;282.95;159.75;;;51.60;2201.60;;;;;;5074939;28;20115;-80
2021/01/13 00:17:18;;;;;;;301.23;172.35;;;51.60;2201.60;;;;;;5075391;28;20055;-79
2021/01/13 00:19:44;;;;;;;313.80;177.13;;;51.50;2201.60;;;;;;5076251;28;20052;-81
2021/01/13 00:22:11;;;;;;;322.35;182.13;;;51.50;2201.60;;;;;;5075428;28;20029;-81
2021/01/13 00:24:36;;;;;;;321.33;185.52;;;51.40;2201.60;;;;;;5075482;28;20031;-81
2021/01/13 00:27:03;;;;;;;325.90;190.88;;;51.40;2201.60;;;;;;5075197;28;20032;-81
2021/01/13 00:29:29;;;;;;;305.52;170.30;;;51.40;2201.60;;;;;;5075237;28;20039;-81
2021/01/13 00:31:56;;;;;;;318.20;184.07;;;51.30;2201.60;;;;;;5075167;28;20402;-80
2021/01/13 00:34:22;;;;;;;308.48;175.82;;;51.20;2201.60;;;;;;5076078;28;20024;-81
2021/01/13 00:36:48;;;;;;;315.65;183.15;;;51.20;2201.60;;;;;;5076232;28;20103;-81
2021/01/13 00:39:14;;;;;;;340.77;194.93;;;51.20;2201.60;;;;;;5074913;28;20059;-83
2021/01/13 00:41:40;;;;;;;301.95;170.55;;;51.20;2201.60;;;;;;5076173;28;20031;-83
2021/01/13 00:44:12;;;;;;;311.38;176.70;;;26.50;2176.00;;;;;;5074957;28;20021;-85
2021/01/13 00:46:39;;;;;;;319.55;187.38;;;26.50;2176.00;;;;;;5094444;28;20040;-83
2021/01/13 00:49:33;;;;;;;313.63;176.07;;;26.40;2150.40;;;;;;5078295;28;20070;-85
2021/01/13 00:51:58;;;;;;;317.90;184.93;;;26.40;2176.00;;;;;;5078288;28;20024;-82
2021/01/13 00:54:24;;;;;;;329.42;181.95;;;26.20;2176.00;;;;;;5077974;28;20031;-79
2021/01/13 00:56:50;;;;;;;304.35;173.60;;;26.20;2176.00;;;;;;5076795;28;20063;-82
2021/01/13 00:59:16;;;;;;;304.95;167.80;;;26.20;2176.00;;;;;;5077869;28;20077;-85
2021/01/13 01:01:44;;;;;;;313.73;176.60;;;26.20;2176.00;;;;;;5095864;28;20050;-84
2021/01/13 01:04:11;;;;;;;312.05;179.25;;;26.20;2201.60;;;;;;5077866;28;20032;-81
2021/01/13 01:06:37;;;;;;;275.60;155.15;;;26.10;2201.60;;;;;;5077857;28;20036;-80
2021/01/13 01:09:05;;;;;;;283.25;162.15;;;26.10;2176.00;;;;;;5077777;28;20111;-82
2021/01/13 01:11:33;;;;;;;268.08;152.25;;;26.10;2176.00;;;;;;5077700;28;20069;-81
2021/01/13 01:13:59;;;;;;;293.30;165.65;;;26.10;2201.60;;;;;;5077015;28;20048;-77
2021/01/13 01:16:36;;;;;;;307.52;173.50;;;26.10;2201.60;;;;;;5094644;28;20390;-78
2021/01/13 01:19:04;;;;;;;334.45;183.15;;;26.10;2201.60;;;;;;5094797;28;20069;-78
2021/01/13 01:21:30;;;;;;;304.42;170.68;;;26.00;2201.60;;;;;;5076798;28;20076;-78
2021/01/13 01:23:56;;;;;;;282.83;156.57;;;26.00;2201.60;;;;;;5076983;28;20479;-82
2021/01/13 01:26:23;;;;;;;314.17;172.80;;;25.90;2201.60;;;;;;5077197;28;20035;-83
2021/01/13 01:28:49;;;;;;;307.33;165.95;;;25.90;2201.60;;;;;;5077369;28;20417;-81
2021/01/13 01:31:15;;;;;;;291.25;158.00;;;25.90;2201.60;;;;;;5077383;28;20111;-81
2021/01/13 01:33:41;;;;;;;302.60;156.90;;;25.90;2201.60;;;;;;5077222;28;20028;-80
2021/01/13 01:36:07;;;;;;;292.48;154.38;;;25.80;2201.60;;;;;;5076811;28;20386;-80
2021/01/13 01:38:33;;;;;;;313.23;160.07;;;25.80;2201.60;;;;;;5077169;28;20024;-80
2021/01/13 01:41:18;;;;;;;293.67;155.38;;;25.80;2201.60;;;;;;5077025;28;20115;-81
2021/01/13 01:43:45;;;;;;;314.05;160.13;;;25.80;2201.60;;;;;;5077088;28;20020;-82
2021/01/13 01:46:11;;;;;;;295.85;161.57;;;25.90;2201.60;;;;;;5076890;28;20056;-82
2021/01/13 01:49:04;;;;;;;294.98;168.30;;;25.60;2201.60;;;;;;5076694;28;20123;-84
2021/01/13 01:51:38;;;;;;;304.13;165.13;;;25.60;2201.60;;;;;;5072460;28;20036;-85
2021/01/13 01:54:13;;;;;;;255.85;142.13;;;0.90;2201.60;;;;;;5077108;28;20032;-85
2021/01/13 01:56:44;;;;;;;249.38;136.75;;;0.90;2201.60;;;;;;5094044;28;20028;-85
2021/01/13 01:59:12;;;;;;;265.05;141.55;;;0.90;2176.00;;;;;;5076896;28;20021;-87
2021/01/13 02:01:47;;;;;;;275.05;145.63;;;25.60;2201.60;;;;;;5076401;28;20028;-83
2021/01/13 02:04:16;;;;;;;269.20;135.38;;;0.90;2201.60;;;;;;5094576;28;20016;-83
2021/01/13 02:06:49;;;;;;;239.15;123.72;;;25.60;2201.60;;;;;;5076775;28;20055;-80
2021/01/13 02:09:15;;;;;;;257.40;134.77;;;25.60;2201.60;;;;;;5076520;28;20028;-79
2021/01/13 02:11:48;;;;;;;263.50;133.00;;;25.70;2201.60;;;;;;5076156;28;20068;-79
2021/01/13 02:14:14;;;;;;;255.33;129.70;;;25.70;2201.60;;;;;;5076427;28;20028;-79
2021/01/13 02:16:48;;;;;;;251.70;124.07;;;25.60;2201.60;;;;;;5075699;28;20119;-79
2021/01/13 02:19:24;;;;;;;236.73;122.18;;;25.60;2201.60;;;;;;5076575;28;20031;-80
2021/01/13 02:21:55;;;;;;;232.40;118.90;;;25.70;2201.60;;;;;;5076394;28;20024;-80
2021/01/13 02:24:46;;;;;;;249.82;122.13;;;25.70;2201.60;;;;;;5076335;28;20023;-80
2021/01/13 02:27:49;;;;;;;270.67;128.35;;;25.60;2201.60;;;;;;5076263;28;20036;-79
2021/01/13 02:30:18;;;;;;;252.43;123.45;;;0.90;2201.60;;;;;;5076474;28;20020;-80
2021/01/13 02:32:49;;;;;;;257.38;124.88;;;0.90;2201.60;;;;;;5076254;28;20024;-80
2021/01/13 02:35:24;;;;;;;272.75;128.90;;;0.80;2201.60;;;;;;5076232;28;20468;-80
2021/01/13 02:37:59;;;;;;;264.15;129.65;;;0.80;2201.60;;;;;;5076150;28;20024;-81
2021/01/13 02:40:28;;;;;;;285.98;123.88;;;0.80;2201.60;;;;;;5076512;28;20042;-80
2021/01/13 02:42:58;;;;;;;292.58;125.15;;;0.70;2201.60;;;;;;5075523;28;20047;-80
2021/01/13 02:45:25;;;;;;;300.00;128.68;;;0.80;2201.60;;;;;;5075750;28;20130;-80
2021/01/13 02:48:04;;;;;;;259.58;116.60;;;0.90;2201.60;;;;;;5076107;28;20390;-80
2021/01/13 02:50:32;;;;;;;296.33;121.85;;;25.60;2201.60;;;;;;5075720;28;20036;-80
2021/01/13 02:53:30;;;;;;;299.20;124.80;;;25.60;2201.60;;;;;;5075916;28;20028;-80
2021/01/13 02:55:56;;;;;;;280.98;124.97;;;0.90;2201.60;;;;;;5093665;28;20114;-78
2021/01/13 02:58:25;;;;;;;279.73;129.98;;;25.60;2201.60;;;;;;5075214;28;20054;-78
2021/01/13 03:00:52;;;;;;;318.00;125.90;;;25.60;2201.60;;;;;;5075214;28;20024;-77
2021/01/13 03:03:18;;;;;;;214.25;102.78;;;25.60;2201.60;;;;;;5093210;28;20024;-78
2021/01/13 03:05:45;;;;;;;183.23;86.47;;;25.60;2201.60;;;;;;5075183;28;20032;-79
2021/01/13 03:10:50;;;;;;;161.98;76.45;;;25.60;2201.60;;;;;;5095905;28;20059;-81
2021/01/13 03:13:15;;;;;;;151.25;72.80;;;25.60;2201.60;;;;;;5079636;28;20024;-85
2021/01/13 03:15:41;;;;;;;153.57;76.53;;;0.90;2176.00;;;;;;5080335;28;20034;-86
2021/01/13 03:18:31;;;;;;;180.50;84.65;;;0.80;2176.00;;;;;;5080212;28;20034;-85
2021/01/13 03:21:12;;;;;;;155.75;75.13;;;0.70;2201.60;;;;;;5079838;28;20030;-86
2021/01/13 03:23:46;;;;;;;176.55;77.28;;;0.60;2201.60;;;;;;5079992;28;20363;-86
2021/01/13 03:26:17;;;;;;;213.25;93.72;;;0.40;2201.60;;;;;;5080016;28;20032;-86
2021/01/13 03:28:49;;;;;;;193.05;87.80;;;0.40;2201.60;;;;;;5079890;28;20032;-84
2021/01/13 03:31:25;;;;;;;206.82;92.90;;;0.30;2201.60;;;;;;5080278;28;20028;-86
2021/01/13 03:34:18;;;;;;;201.25;92.18;;;0.40;2201.60;;;;;;5079007;28;20085;-82
2021/01/13 03:37:08;;;;;;;230.50;97.72;;;0.40;2201.60;;;;;;5079353;28;20392;-83
2021/01/13 03:39:36;;;;;;;271.23;108.68;;;0.50;2201.60;;;;;;5079585;28;20024;-81
2021/01/13 03:42:11;;;;;;;262.02;112.22;;;0.50;2201.60;;;;;;5079385;28;20509;-84
2021/01/13 03:44:43;;;;;;;248.20;105.78;;;0.50;2201.60;;;;;;5079538;28;20500;-85
2021/01/13 03:47:21;;;;;;;285.48;115.07;;;0.60;2201.60;;;;;;5097397;28;20055;-85
2021/01/13 03:50:09;;;;;;;308.75;122.55;;;0.60;2201.60;;;;;;5079351;28;20028;-86
2021/01/13 03:52:41;;;;;;;295.02;111.82;;;0.60;2201.60;;;;;;4980147;28;20030;-86
2021/01/13 03:55:07;;;;;;;263.77;109.78;;;0.50;2201.60;;;;;;4980007;28;20030;-85
2021/01/13 03:57:57;;;;;;;318.25;112.88;;;0.40;2201.60;;;;;;4979325;28;20034;-86
2021/01/13 04:00:45;;;;;;;297.25;120.20;;;0.40;2201.60;;;;;;4979600;28;20033;-86
2021/01/13 04:03:23;;;;;;;312.58;122.32;;;0.40;2201.60;;;;;;4979565;28;20037;-86
2021/01/13 04:06:02;;;;;;;346.38;125.75;;;0.30;2201.60;;;;;;4995683;28;20034;-85
2021/01/13 04:08:34;;;;;;;277.42;119.03;;;0.30;2201.60;;;;;;4995713;28;20030;-85
2021/01/13 04:11:00;;;;;;;281.20;123.78;;;0.30;2201.60;;;;;;4979171;28;20046;-85
2021/01/13 04:13:41;;;;;;;316.55;137.85;;;0.40;2201.60;;;;;;4979513;28;20386;-84
2021/01/13 04:16:13;;;;;;;339.10;137.75;;;0.40;2201.60;;;;;;4979422;28;20053;-85
2021/01/13 04:18:40;;;;;;;295.33;127.90;;;0.40;2201.60;;;;;;4979394;28;20034;-85
2021/01/13 04:21:26;;;;;;;324.38;128.93;;;0.40;2201.60;;;;;;4978538;28;20029;-86
2021/01/13 04:23:57;;;;;;;295.83;120.75;;;0.40;2201.60;;;;;;4979360;28;20096;-86
2021/01/13 04:26:23;;;;;;;301.48;129.13;;;0.40;2201.60;;;;;;4978576;28;20049;-87
2021/01/13 04:28:49;;;;;;;321.65;125.00;;;0.20;2201.60;;;;;;4995750;28;20028;-86
2021/01/13 04:31:15;;;;;;;303.50;124.75;;;0.20;2201.60;;;;;;5078303;28;20436;-86
2021/01/13 04:33:41;;;;;;;263.02;117.50;;;0.20;2201.60;;;;;;5078587;28;20032;-87
2021/01/13 04:36:07;;;;;;;245.05;114.30;;;0.30;2201.60;;;;;;5079210;28;20051;-86
2021/01/13 04:38:35;;;;;;;291.00;120.47;;;0.40;2201.60;;;;;;5078867;28;20082;-86
2021/01/13 04:41:11;;;;;;;267.08;113.40;;;0.40;2201.60;;;;;;5078759;28;20027;-86
2021/01/13 04:43:57;;;;;;;188.52;90.85;;;0.30;2201.60;;;;;;5078653;28;20531;-86
2021/01/13 04:46:33;;;;;;;138.00;67.05;;;0.10;2201.60;;;;;;5078334;28;20107;-86
2021/01/13 04:49:02;;;;;;;136.18;71.70;;;0.20;2201.60;;;;;;5078552;28;20031;-86
2021/01/13 04:51:39;;;;;;;119.63;57.08;;;0.10;2201.60;;;;;;5078322;28;20024;-85
2021/01/13 04:54:14;;;;;;;117.18;59.80;;;0.10;2176.00;;;;;;5078240;28;20027;-85
2021/01/13 04:56:42;;;;;;;101.95;55.92;;;0.00;2176.00;;;;;;5078286;28;20508;-87
2021/01/13 04:59:20;;;;;;;110.38;56.72;;;0.10;2150.40;;;;;;5078020;28;20032;-80
2021/01/13 05:02:06;;;;;;;107.18;55.28;;;0.20;2150.40;;;;;;5077884;28;20024;-81
2021/01/13 05:04:55;;;;;;;101.00;52.35;;;0.20;2150.40;;;;;;5077222;28;20024;-78
2021/01/13 05:07:41;;;;;;;115.65;63.47;;;0.20;2150.40;;;;;;5077157;28;20035;-79
2021/01/13 05:10:15;;;;;;;109.93;60.00;;;0.20;2150.40;;;;;;5076856;28;20067;-82
2021/01/13 05:12:47;;;;;;;111.30;60.55;;;0.30;2150.40;;;;;;5077130;28;20363;-79
2021/01/13 05:15:15;;;;;;;112.20;52.88;;;0.30;2150.40;;;;;;5076958;28;20051;-81
2021/01/13 05:17:58;;;;;;;101.07;53.22;;;0.30;2150.40;;;;;;5076901;28;20486;-79
2021/01/13 05:20:27;;;;;;;104.30;57.00;;;0.40;2150.40;;;;;;5076791;28;20474;-78
2021/01/13 05:22:54;;;;;;;100.57;56.25;;;0.40;2150.40;;;;;;5094954;28;20032;-81
2021/01/13 05:25:38;;;;;;;101.38;56.38;;;0.40;2124.80;;;;;;5094948;28;20051;-78
2021/01/13 05:28:07;;;;;;;109.05;59.40;;;0.40;2124.80;;;;;;5076465;28;20035;-79
2021/01/13 05:30:54;;;;;;;107.72;57.67;;;0.30;2124.80;;;;;;5094975;28;20035;-78
2021/01/13 05:33:25;;;;;;;122.93;64.50;;;0.40;2124.80;;;;;;5076851;28;20031;-83
2021/01/13 05:35:55;;;;;;;128.20;68.75;;;0.40;2150.40;;;;;;5079623;28;20115;-81
2021/01/13 05:38:43;;;;;;;132.50;71.88;;;0.40;2150.40;;;;;;5093887;28;20037;-82
2021/01/13 05:41:13;;;;;;;120.13;68.25;;;0.40;2150.40;;;;;;5087900;28;20036;-83
2021/01/13 05:43:46;;;;;;;142.35;79.10;;;0.60;2124.80;;;;;;5076236;28;20382;-81
2021/01/13 05:46:13;;;;;;;163.73;90.97;;;0.50;2099.20;;;;;;5076298;28;20032;-79
2021/01/13 05:48:59;;;;;;;150.57;83.60;;;0.60;2124.80;;;;;;5076207;28;20028;-80
2021/01/13 05:51:29;;;;;;;167.27;94.03;;;0.50;2099.20;;;;;;5076384;28;20024;-82
2021/01/13 05:53:56;;;;;;;170.38;94.55;;;0.50;2099.20;;;;;;5076999;28;20039;-82
2021/01/13 05:56:26;;;;;;;148.02;81.68;;;0.60;2099.20;;;;;;5076753;28;20027;-84
2021/01/13 05:59:03;;;;;;;141.20;74.63;;;0.60;2099.20;;;;;;5076602;28;20115;-83
2021/01/13 06:01:53;;;;;;;136.32;73.40;;;0.60;2099.20;;;;;;5076744;28;20027;-85
2021/01/13 06:04:19;;;;;;;165.13;87.10;;;0.50;2099.20;;;;;;5076736;28;20526;-84
2021/01/13 06:07:06;;;;;;;155.02;85.55;;;0.40;2099.20;;;;;;5086842;28;20046;-84
2021/01/13 06:09:44;;;;;;;162.52;85.20;;;0.30;2124.80;;;;;;5092945;28;20040;-84
2021/01/13 06:12:18;;;;;;;149.95;85.72;;;0.40;2150.40;;;;;;5076963;28;20123;-86
2021/01/13 06:14:49;;;;;;;166.68;104.25;;;0.40;2124.80;;;;;;5076765;28;20395;-83
2021/01/13 06:17:27;;;;;;;184.45;98.30;;;0.40;2150.40;;;;;;5076639;28;20028;-85
2021/01/13 06:19:55;;;;;;;200.13;103.80;;;0.50;2150.40;;;;;;5076453;28;20057;-85
2021/01/13 06:22:32;;;;;;;207.05;114.85;;;0.40;2150.40;;;;;;5076144;28;20032;-85
2021/01/13 06:24:59;;;;;;;192.10;106.00;;;0.60;2150.40;;;;;;5076348;28;20466;-84
2021/01/13 06:27:48;;;;;;;199.50;104.15;;;0.60;2124.80;;;;;;5076559;28;20039;-85
2021/01/13 06:30:21;;;;;;;195.35;105.88;;;0.70;2124.80;;;;;;5076863;28;20028;-86
2021/01/13 06:33:02;;;;;;;198.07;108.70;;;0.60;2124.80;;;;;;5076331;28;20394;-86
2021/01/13 06:35:43;;;;;;;199.23;106.10;;;0.70;2150.40;;;;;;5076460;28;20024;-85
2021/01/13 06:38:16;;;;;;;217.80;111.47;;;0.70;2150.40;;;;;;5076606;28;20024;-85
2021/01/13 06:40:42;;;;;;;197.52;105.72;;;0.70;2124.80;;;;;;5094511;28;20024;-85
2021/01/13 06:43:12;;;;;;;195.20;106.10;;;0.70;2124.80;;;;;;5075903;28;20070;-85
2021/01/13 06:45:37;;;;;;;247.63;138.45;;;0.80;2124.80;;;;;;5076227;28;20020;-85
2021/01/13 06:48:04;;;;;;;255.27;146.02;;;0.80;2124.80;;;;;;5076453;28;20035;-86
2021/01/13 06:50:38;;;;;;;266.65;142.27;;;0.80;2124.80;;;;;;5076337;28;20024;-86
2021/01/13 06:53:11;;;;;;;263.25;142.60;;;0.80;2124.80;;;;;;5076199;28;20031;-85
2021/01/13 06:55:41;;;;;;;268.75;151.05;;;0.70;2150.40;;;;;;5076239;28;20078;-84
2021/01/13 06:58:17;;;;;;;282.35;154.77;;;0.60;2150.40;;;;;;5076237;28;20024;-85
2021/01/13 07:00:45;;;;;;;263.27;148.60;;;0.60;2176.00;;;;;;5076224;28;20034;-85
2021/01/13 07:03:25;;;;;;;312.65;168.93;;;0.70;2176.00;;;;;;5076126;28;20106;-87
2021/01/13 07:05:54;;;;;;;272.13;149.35;;;0.70;2150.40;;;;;;5075776;28;20482;-86
2021/01/13 07:08:21;;;;;;;275.33;143.23;;;0.70;2176.00;;;;;;5075892;28;20118;-79
2021/01/13 07:10:47;;;;;;;325.65;198.13;;;0.80;2176.00;;;;;;5075206;28;20043;-77
2021/01/13 07:13:15;;;;;;;329.75;187.23;;;0.90;2176.00;;;;;;5093352;28;20020;-78
2021/01/13 07:15:42;;;;;;;232.80;132.82;;;0.90;2150.40;;;;;;5075096;28;20028;-78
2021/01/13 07:18:08;;;;;;;223.88;127.10;;;0.90;2150.40;;;;;;5093323;28;20024;-79
2021/01/13 07:20:41;;;;;;;208.57;118.97;;;25.60;2150.40;;;;;;5092723;28;20107;-77
2021/01/13 07:23:09;;;;;;;215.35;121.78;;;25.70;2150.40;;;;;;5083491;28;20032;-78
2021/01/13 07:25:45;;;;;;;204.25;119.55;;;25.70;2150.40;;;;;;5087519;28;20028;-77
2021/01/13 07:28:13;;;;;;;179.88;103.20;;;25.70;2150.40;;;;;;5071423;28;20510;-78
2021/01/13 07:30:40;;;;;;;194.10;111.60;;;25.80;2124.80;;;;;;5091409;28;20056;-77
2021/01/13 07:33:13;;;;;;;214.35;127.35;;;26.00;2124.80;;;;;;5080697;28;20024;-77
2021/01/13 07:35:47;;;;;;;179.80;102.38;;;26.00;2124.80;;;;;;5090030;28;20028;-77
2021/01/13 07:38:20;;;;;;;198.32;109.40;;;26.10;2099.20;;;;;;5071162;28;20020;-78
2021/01/13 07:41:04;;;;;;;175.02;88.22;;;26.20;2099.20;;;;;;5090392;28;20024;-77
2021/01/13 07:43:48;;;;;;;179.60;99.35;;;26.20;2073.60;;;;;;5090162;28;20028;-77
2021/01/13 07:46:59;;;;;;;168.00;85.53;;;26.10;2073.60;;;;;;5072118;28;20372;-77
2021/01/13 07:49:56;;;;;;;206.18;112.45;;;26.20;2073.60;;;;;;5072088;28;20127;-77
2021/01/13 07:52:24;;;;;;;197.65;110.15;;;26.30;2099.20;;;;;;4971973;28;20061;-78
2021/01/13 07:54:50;;;;;;;162.48;96.18;;;26.40;2099.20;;;;;;4972514;28;20489;-77
2021/01/13 07:57:23;;;;;;;143.27;85.88;;;26.50;2099.20;;;;;;4975679;28;20049;-77
2021/01/13 08:00:03;;;;;;;164.30;92.93;;;51.20;2124.80;;;;;;4975737;28;20038;-77
2021/01/13 08:02:53;;;;;;;171.20;101.45;;;51.30;2099.20;;;;;;4975313;28;20121;-78
2021/01/13 08:05:52;;;;;;;221.65;128.35;;;51.30;2099.20;;;;;;4975286;28;20554;-77
2021/01/13 08:08:55;;;;;;;207.70;123.07;;;51.40;2099.20;;;;;;4991930;28;20496;-77
2021/01/13 08:11:38;;;;;;;210.23;123.70;;;51.50;2099.20;;;;;;4974959;28;20061;-77
2021/01/13 08:14:18;;;;;;;216.77;121.18;;;51.60;2073.60;;;;;;4975011;28;20129;-77
2021/01/13 08:17:03;;;;;;;200.68;117.43;;;51.70;2073.60;;;;;;4975102;28;20188;-77
2021/01/13 08:19:32;;;;;;;177.30;109.07;;;51.70;2048.00;;;;;;4975138;28;20106;-77
2021/01/13 08:22:01;;;;;;;180.85;108.68;;;51.80;2048.00;;;;;;4975138;28;20350;-78
2021/01/13 08:25:01;;;;;;;193.80;111.57;;;51.90;2048.00;;;;;;4974839;28;20416;-77
2021/01/13 08:27:28;;;;;;;244.25;144.88;;;51.90;2048.00;;;;;;4991359;28;20040;-78
2021/01/13 08:29:58;;;;;;;206.45;120.45;;;51.80;2022.40;;;;;;5045791;28;20372;-79
2021/01/13 08:32:42;;;;;;;214.75;128.63;;;51.80;2048.00;;;;;;5074633;28;20070;-76
2021/01/13 08:35:09;;;;;;;213.60;126.05;;;51.80;2048.00;;;;;;5093049;28;20028;-74
2021/01/13 08:37:36;;;;;;;214.55;133.48;;;51.90;2048.00;;;;;;5093641;28;20024;-79
2021/01/13 08:40:35;;;;;;;228.73;139.57;;;51.90;2073.60;;;;;;5075281;28;20059;-81
2021/01/13 08:43:09;;;;;;;230.40;143.90;;;51.90;2048.00;;;;;;4974957;28;20043;-78
2021/01/13 08:45:40;;;;;;;276.73;165.23;;;51.90;2073.60;;;;;;4974311;28;20401;-78
2021/01/13 08:48:09;;;;;;;279.25;175.23;;;52.00;2073.60;;;;;;4991320;28;20030;-77
2021/01/13 08:50:35;;;;;;;277.15;171.63;;;52.00;2073.60;;;;;;4974718;28;20125;-76
2021/01/13 08:53:05;;;;;;;286.83;180.95;;;51.90;2073.60;;;;;;4990693;28;20030;-76
2021/01/13 08:55:32;;;;;;;297.25;192.38;;;52.10;2048.00;;;;;;4990599;28;20429;-77
2021/01/13 08:58:08;;;;;;;324.83;213.93;;;52.00;2048.00;;;;;;4990858;28;20105;-77
2021/01/13 09:00:37;;;;;;;308.02;203.88;;;76.80;2048.00;;;;;;4974397;28;20026;-77
2021/01/13 09:03:07;;;;;;;366.83;238.25;;;77.00;2048.00;;;;;;4974336;28;20037;-77
2021/01/13 09:05:37;;;;;;;402.50;263.85;;;77.10;2048.00;;;;;;4989958;28;20034;-77
2021/01/13 09:08:05;;;;;;;421.63;265.63;;;77.10;1996.80;;;;;;4974260;28;20595;-77
2021/01/13 09:10:52;;;;;;;407.83;266.13;;;77.20;1996.80;;;;;;4990159;28;20050;-77
2021/01/13 09:13:40;;;;;;;403.17;264.23;;;77.20;2022.40;;;;;;4973698;28;20042;-77
2021/01/13 09:16:25;;;;;;;415.95;271.95;;;77.40;1996.80;;;;;;4974042;28;20378;-77
2021/01/13 09:18:55;;;;;;;493.55;327.10;;;77.30;1996.80;;;;;;5034144;28;20039;-77
2021/01/13 09:21:29;;;;;;;475.48;314.83;;;77.40;2022.40;;;;;;5092123;28;20028;-77
2021/01/13 09:23:55;;;;;;;391.70;254.60;;;77.70;1996.80;;;;;;5073986;28;20032;-77
2021/01/13 09:26:28;;;;;;;364.48;238.93;;;77.70;1971.20;;;;;;5073498;28;20181;-77
2021/01/13 09:29:10;;;;;;;490.02;306.60;;;102.50;1971.20;;;;;;5092070;28;20021;-77
2021/01/13 09:31:38;;;;;;;347.33;222.95;;;102.60;1945.60;;;;;;5091556;28;20016;-77
2021/01/13 09:34:05;;;;;;;337.58;222.02;;;102.90;1945.60;;;;;;5073582;28;20036;-77
2021/01/13 09:36:55;;;;;;;288.42;188.55;;;103.00;1945.60;;;;;;5073593;28;20026;-77
2021/01/13 09:39:37;;;;;;;246.98;157.20;;;103.20;1920.00;;;;;;5073914;28;20020;-77
2021/01/13 09:42:09;;;;;;;215.35;140.90;;;103.30;1894.40;;;;;;5073628;28;20039;-77
2021/01/13 09:44:36;;;;;;;220.35;141.15;;;103.20;1894.40;;;;;;5073344;28;20023;-77
2021/01/13 09:47:28;;;;;;;223.32;145.60;;;103.30;1868.80;;;;;;5073050;28;20044;-77
2021/01/13 09:49:57;;;;;;;346.20;241.38;;;128.00;1894.40;;;;;;5085212;28;20039;-81
2021/01/13 09:52:36;;;;;;;215.65;138.10;;;128.00;1894.40;;;;;;5084813;28;20024;-76
2021/01/13 09:55:08;;;;;;;207.05;129.90;;;128.10;1894.40;;;;;;5089743;28;20085;-76
2021/01/13 09:57:34;;;;;;;191.70;120.03;;;128.00;1868.80;;;;;;5091687;28;20077;-76
2021/01/13 10:00:04;;;;;;;203.45;128.32;;;128.00;1920.00;;;;;;5091866;28;20505;-76
2021/01/13 10:02:30;;;;;;;175.05;111.03;;;128.00;1894.40;;;;;;5091347;28;20040;-76
2021/01/13 10:04:56;;;;;;;159.38;107.18;;;128.00;1894.40;;;;;;5091529;28;20082;-76
2021/01/13 10:07:27;;;;;;;172.73;108.68;;;103.30;1894.40;;;;;;5091322;28;20032;-76
2021/01/13 10:09:53;;;;;;;169.27;106.03;;;103.30;1894.40;;;;;;5091124;28;20433;-76
2021/01/13 10:12:19;;;;;;;163.02;110.38;;;128.00;1894.40;;;;;;5091273;28;20036;-76
2021/01/13 10:14:52;;;;;;;160.32;100.68;;;128.00;1894.40;;;;;;5091033;28;20024;-76
2021/01/13 10:17:27;;;;;;;170.30;108.63;;;128.00;1894.40;;;;;;5090116;28;20031;-76
2021/01/13 10:19:54;;;;;;;173.68;116.32;;;128.10;1894.40;;;;;;5089561;28;20036;-76
2021/01/13 10:22:29;;;;;;;177.48;113.97;;;128.10;1894.40;;;;;;5090989;28;20023;-76
2021/01/13 10:24:55;;;;;;;217.07;141.60;;;128.10;1894.40;;;;;;5090908;28;20027;-76
2021/01/13 10:27:22;;;;;;;293.73;189.93;;;128.20;1894.40;;;;;;5090631;28;20075;-77
2021/01/13 10:29:49;;;;;;;351.60;221.98;;;128.20;1894.40;;;;;;5089212;28;20027;-76
2021/01/13 10:32:15;;;;;;;357.10;225.18;;;128.10;1894.40;;;;;;5090839;28;20055;-77
2021/01/13 10:34:42;;;;;;;292.10;191.70;;;128.10;1894.40;;;;;;5090618;28;20479;-76
2021/01/13 10:37:08;;;;;;;247.60;159.60;;;128.30;1894.40;;;;;;5089268;28;20024;-77
2021/01/13 10:39:34;;;;;;;262.20;172.57;;;128.40;1894.40;;;;;;5090949;28;20035;-76
2021/01/13 10:42:05;;;;;;;245.13;163.95;;;128.50;1868.80;;;;;;5090849;28;20421;-76
2021/01/13 10:44:32;;;;;;;226.13;146.25;;;128.70;1868.80;;;;;;5089116;28;20454;-76
2021/01/13 10:47:07;;;;;;;228.73;154.38;;;128.80;1843.20;;;;;;5090510;28;20032;-76
2021/01/13 10:49:38;;;;;;;188.93;124.03;;;128.90;1817.60;;;;;;5089642;28;20059;-76
2021/01/13 10:52:04;;;;;;;212.45;145.57;;;153.70;1817.60;;;;;;5090753;28;20024;-76
2021/01/13 10:54:35;;;;;;;179.13;115.82;;;153.80;1817.60;;;;;;5089303;28;20474;-76
2021/01/13 10:57:03;;;;;;;191.13;126.43;;;153.90;1817.60;;;;;;5088962;28;20039;-76
2021/01/13 10:59:29;;;;;;;221.50;154.48;;;153.90;1792.00;;;;;;5090606;28;20028;-77
2021/01/13 11:02:14;;;;;;;234.38;161.60;;;153.90;1817.60;;;;;;5089374;28;20390;-76
2021/01/13 11:04:42;;;;;;;376.05;227.15;;;153.90;1817.60;;;;;;5090846;28;20421;-76
2021/01/13 11:07:12;;;;;;;398.45;242.30;;;153.70;1817.60;;;;;;5090235;28;20028;-76
2021/01/13 11:09:45;;;;;;;278.02;189.75;;;153.60;1843.20;;;;;;5090330;28;20036;-76
2021/01/13 11:12:17;;;;;;;233.75;160.43;;;153.60;1868.80;;;;;;5089200;28;20043;-76
2021/01/13 11:14:46;;;;;;;209.95;140.23;;;128.90;1868.80;;;;;;5090693;28;20261;-76
2021/01/13 11:17:19;;;;;;;187.27;128.45;;;128.80;1868.80;;;;;;5088977;28;20030;-76
2021/01/13 11:19:48;;;;;;;227.00;145.67;;;128.80;1868.80;;;;;;5089271;28;20020;-77
2021/01/13 11:22:15;;;;;;;349.70;216.73;;;128.80;1868.80;;;;;;5090355;28;20024;-76
2021/01/13 11:24:44;;;;;;;266.10;177.38;;;128.80;1843.20;;;;;;5090714;28;20028;-78
2021/01/13 11:27:14;;;;;;;224.18;150.38;;;128.90;1843.20;;;;;;5081352;28;20479;-76
2021/01/13 11:29:43;;;;;;;223.00;150.07;;;128.80;1843.20;;;;;;5072701;28;20783;-76
2021/01/13 11:32:14;;;;;;;163.23;106.80;;;128.80;1868.80;;;;;;5074097;28;20070;-76
2021/01/13 11:34:52;;;;;;;132.40;88.97;;;128.80;1868.80;;;;;;5073767;28;20025;-76
2021/01/13 11:37:31;;;;;;;154.32;104.68;;;128.80;1868.80;;;;;;5073643;28;20548;-77
2021/01/13 11:40:13;;;;;;;138.95;95.93;;;128.80;1894.40;;;;;;5073976;28;20036;-77
2021/01/13 11:42:43;;;;;;;145.98;96.10;;;128.80;1868.80;;;;;;5074104;28;20029;-76
2021/01/13 11:45:28;;;;;;;170.85;110.90;;;128.80;1868.80;;;;;;5074221;28;20033;-77
2021/01/13 11:47:55;;;;;;;201.50;135.60;;;128.80;1868.80;;;;;;5072667;28;20039;-76
2021/01/13 11:50:23;;;;;;;196.07;130.60;;;128.70;1894.40;;;;;;5073745;28;20027;-77
2021/01/13 11:52:55;;;;;;;163.23;110.53;;;128.70;1894.40;;;;;;5073586;28;20035;-76
2021/01/13 11:55:30;;;;;;;148.02;101.63;;;128.60;1894.40;;;;;;5072367;28;20028;-76
2021/01/13 11:57:56;;;;;;;120.10;88.00;;;128.60;1894.40;;;;;;5073749;28;20054;-76
2021/01/13 12:00:26;;;;;;;91.50;61.83;;;128.50;1894.40;;;;;;5073769;28;20356;-77
2021/01/13 12:02:54;;;;;;;90.18;57.35;;;128.40;1894.40;;;;;;5072110;28;20067;-76
2021/01/13 12:05:34;;;;;;;105.55;66.13;;;128.40;1920.00;;;;;;5073219;28;20021;-76
2021/01/13 12:08:06;;;;;;;113.60;74.78;;;128.50;1945.60;;;;;;5073149;28;20541;-76
2021/01/13 12:10:39;;;;;;;102.75;70.78;;;128.50;1920.00;;;;;;5071788;28;20044;-77
2021/01/13 12:13:09;;;;;;;105.90;70.95;;;128.50;1920.00;;;;;;5073129;28;20033;-76
2021/01/13 12:16:05;;;;;;;102.32;69.68;;;128.60;1920.00;;;;;;5071648;28;20505;-77
2021/01/13 12:18:32;;;;;;;79.43;54.50;;;128.70;1894.40;;;;;;5071791;28;20028;-77
2021/01/13 12:21:21;;;;;;;75.88;51.38;;;128.80;1894.40;;;;;;5072185;28;20020;-77
2021/01/13 12:23:53;;;;;;;74.78;49.47;;;128.80;1868.80;;;;;;5072914;28;20047;-76